Time;durP1;ratioP1;P1;durP2;ratioP2;P2;SDS_P1;SDS_P2;PMS_P1;PMS_P2;Temp;Humidity;BMP_temperature;BMP_pressure;BME280_temperature;BME280_humidity;BME280_pressure;Samples;Min_cycle;Max_cycle;Signal;HPM_P1;HPM_P2
2022/06/25 00:03:34;;;;;;;2.35;2.15;;;23.70;99.90;;;;;;12914677;23;20225;-80
2022/06/25 00:08:38;;;;;;;2.70;2.28;;;23.70;99.90;;;;;;12917064;23;20170;-80
2022/06/25 00:13:41;;;;;;;2.42;2.10;;;23.70;99.90;;;;;;12915788;23;20171;-80
2022/06/25 00:18:43;;;;;;;2.45;2.22;;;23.70;99.90;;;;;;12935921;23;20244;-80
2022/06/25 00:23:46;;;;;;;2.75;2.50;;;23.60;99.90;;;;;;12914362;23;20264;-80
2022/06/25 00:28:48;;;;;;;2.30;2.10;;;23.60;99.90;;;;;;12918204;23;20162;-80
2022/06/25 00:33:51;;;;;;;2.70;2.50;;;23.60;99.90;;;;;;12918810;23;20233;-80
2022/06/25 00:38:54;;;;;;;2.42;2.22;;;23.60;99.90;;;;;;12919021;23;20178;-80
2022/06/25 00:43:56;;;;;;;2.20;1.92;;;23.50;99.90;;;;;;12918599;23;20190;-80
2022/06/25 00:48:59;;;;;;;2.50;2.30;;;23.50;99.90;;;;;;12917845;23;20174;-80
2022/06/25 00:54:05;;;;;;;2.55;2.35;;;23.50;99.90;;;;;;12892688;23;20228;-80
2022/06/25 00:59:09;;;;;;;2.55;2.30;;;23.50;99.90;;;;;;12892894;23;20178;-80
2022/06/25 01:04:12;;;;;;;3.17;2.90;;;23.50;99.90;;;;;;12918655;23;20199;-80
2022/06/25 01:09:14;;;;;;;2.63;2.40;;;23.40;99.90;;;;;;12917586;23;20174;-80
2022/06/25 01:14:17;;;;;;;2.63;2.42;;;23.40;99.90;;;;;;12918347;23;20228;-80
2022/06/25 01:19:19;;;;;;;2.65;2.45;;;23.40;99.90;;;;;;12917587;23;20229;-80
2022/06/25 01:24:22;;;;;;;2.30;2.10;;;23.50;99.90;;;;;;12916424;23;20194;-80
2022/06/25 01:29:25;;;;;;;3.05;2.42;;;23.40;99.90;;;;;;12918272;23;20166;-80
2022/06/25 01:34:28;;;;;;;2.80;2.60;;;23.40;99.90;;;;;;12917009;23;20174;-80
2022/06/25 01:39:30;;;;;;;2.80;2.60;;;23.40;99.90;;;;;;12920036;23;20564;-80
2022/06/25 01:44:36;;;;;;;2.97;2.65;;;23.40;99.90;;;;;;12916830;23;20517;-80
2022/06/25 01:49:39;;;;;;;3.00;2.80;;;23.40;99.90;;;;;;12916824;23;20174;-80
2022/06/25 01:54:41;;;;;;;2.60;2.40;;;23.30;99.90;;;;;;12916177;23;20202;-80
2022/06/25 01:59:46;;;;;;;2.95;2.67;;;23.30;99.90;;;;;;12917712;23;20174;-80
2022/06/25 02:04:49;;;;;;;2.80;2.58;;;23.30;99.90;;;;;;12917441;23;20256;-80
2022/06/25 02:09:52;;;;;;;3.85;2.30;;;23.30;99.90;;;;;;12918175;23;20522;-80
2022/06/25 02:14:54;;;;;;;4.80;2.70;;;23.30;99.90;;;;;;12917970;23;20240;-80
2022/06/25 02:19:57;;;;;;;2.83;2.63;;;23.30;99.90;;;;;;12916170;23;20170;-80
2022/06/25 02:25:00;;;;;;;2.88;2.67;;;23.30;99.90;;;;;;12915113;23;20503;-80
2022/06/25 02:30:02;;;;;;;2.75;2.53;;;23.30;99.90;;;;;;12916830;23;20251;-80
2022/06/25 02:35:07;;;;;;;3.10;2.83;;;23.30;99.90;;;;;;12917726;23;20166;-80
2022/06/25 02:40:12;;;;;;;3.08;2.80;;;23.30;99.90;;;;;;12916402;23;20229;-80
2022/06/25 02:45:17;;;;;;;2.60;2.40;;;23.20;99.90;;;;;;12915795;23;20255;-80
2022/06/25 02:50:24;;;;;;;2.60;2.40;;;23.20;99.90;;;;;;12914592;23;20574;-79
2022/06/25 03:00:51;;;;;;;3.20;2.90;;;23.30;99.90;;;;;;12870343;23;20176;-80
2022/06/25 03:05:54;;;;;;;2.83;2.63;;;23.30;99.90;;;;;;12915457;23;20194;-80
2022/06/25 03:10:57;;;;;;;2.85;2.65;;;23.30;99.90;;;;;;12915078;23;20209;-80
2022/06/25 03:16:00;;;;;;;3.17;2.92;;;23.30;99.90;;;;;;12914982;23;20224;-80
2022/06/25 03:21:04;;;;;;;3.05;2.72;;;23.30;99.90;;;;;;12914855;23;20174;-80
2022/06/25 03:26:09;;;;;;;2.80;2.60;;;23.30;99.90;;;;;;12915091;23;20248;-80
2022/06/25 03:31:11;;;;;;;2.65;2.45;;;23.30;99.90;;;;;;12914961;23;20174;-80
2022/06/25 03:36:14;;;;;;;3.47;3.17;;;23.30;99.90;;;;;;12889331;23;20166;-80
2022/06/25 03:41:37;;;;;;;2.90;2.70;;;23.30;99.90;;;;;;12914990;23;20174;-80
2022/06/25 03:47:06;;;;;;;2.80;2.60;;;23.30;99.90;;;;;;12912667;23;20225;-80
2022/06/25 03:52:10;;;;;;;2.90;2.70;;;23.30;99.90;;;;;;12914881;23;20568;-80
2022/06/25 03:57:13;;;;;;;2.78;2.58;;;23.30;99.90;;;;;;12913850;23;20202;-80
2022/06/25 04:02:36;;;;;;;3.42;3.13;;;23.30;99.90;;;;;;12915437;23;20710;-79
2022/06/25 04:07:59;;;;;;;3.60;2.85;;;23.30;99.90;;;;;;12918820;23;20236;-80
2022/06/25 04:13:02;;;;;;;3.20;2.97;;;23.30;99.90;;;;;;12916255;23;20500;-79
2022/06/25 04:18:05;;;;;;;3.40;2.95;;;23.30;99.90;;;;;;12917900;23;20174;-80
2022/06/25 04:23:09;;;;;;;3.50;3.20;;;23.30;99.90;;;;;;12889968;23;20874;-80
2022/06/25 04:33:39;;;;;;;2.92;2.72;;;23.40;99.90;;;;;;12918742;23;20236;-80
2022/06/25 04:38:42;;;;;;;3.10;2.90;;;23.50;99.90;;;;;;12918924;23;20196;-80
2022/06/25 04:43:46;;;;;;;3.17;2.97;;;23.50;99.90;;;;;;12892226;23;20624;-80
2022/06/25 04:48:55;;;;;;;3.40;3.10;;;23.40;99.90;;;;;;12916863;23;20174;-80
2022/06/25 04:54:03;;;;;;;4.93;3.63;;;23.40;99.90;;;;;;12916114;23;20178;-80
2022/06/25 04:59:12;;;;;;;3.67;3.38;;;23.40;99.90;;;;;;12917553;23;20182;-80
2022/06/25 05:04:42;;;;;;;3.40;3.10;;;23.40;99.90;;;;;;12898109;23;20244;-80
2022/06/25 05:09:45;;;;;;;3.13;2.88;;;23.40;99.90;;;;;;12914771;23;20178;-80
2022/06/25 05:15:10;;;;;;;3.88;3.55;;;23.40;99.90;;;;;;12915970;23;20212;-80
2022/06/25 05:20:16;;;;;;;3.25;3.05;;;23.40;99.90;;;;;;12890184;23;20174;-80
2022/06/25 05:25:19;;;;;;;3.83;3.45;;;23.40;99.90;;;;;;12915876;23;20244;-80
2022/06/25 05:30:21;;;;;;;3.25;2.95;;;23.30;99.90;;;;;;12893382;23;20174;-80
2022/06/25 05:35:24;;;;;;;3.55;3.25;;;23.40;99.90;;;;;;12916591;23;20521;-80
2022/06/25 05:40:27;;;;;;;8.05;5.47;;;23.40;99.90;;;;;;12914259;23;20182;-80
2022/06/25 05:45:30;;;;;;;5.45;4.68;;;23.40;99.90;;;;;;12934006;23;20194;-80
2022/06/25 05:50:32;;;;;;;3.67;3.38;;;23.40;99.90;;;;;;12916367;23;20240;-79
2022/06/25 05:55:35;;;;;;;3.58;3.28;;;23.50;99.90;;;;;;12916156;23;20252;-80
2022/06/25 06:00:38;;;;;;;4.60;4.03;;;23.50;99.90;;;;;;12888070;23;20232;-80
2022/06/25 06:05:40;;;;;;;3.67;3.38;;;23.40;99.90;;;;;;12915344;23;20190;-80
2022/06/25 06:10:43;;;;;;;3.45;3.15;;;23.50;99.90;;;;;;12916429;23;20358;-80
2022/06/25 06:15:46;;;;;;;3.53;3.22;;;23.60;99.90;;;;;;12916220;23;20216;-80
2022/06/25 06:20:48;;;;;;;3.50;3.20;;;23.60;99.90;;;;;;12915183;23;20228;-80
2022/06/25 06:25:51;;;;;;;4.20;3.90;;;23.70;99.90;;;;;;12915758;22;20202;-80
2022/06/25 06:30:53;;;;;;;3.63;3.33;;;23.80;99.90;;;;;;12917332;23;20185;-80
2022/06/25 06:35:56;;;;;;;3.85;3.42;;;23.90;99.90;;;;;;12915944;23;20197;-80
2022/06/25 06:40:58;;;;;;;3.53;3.25;;;24.00;99.90;;;;;;12917083;23;20170;-79
2022/06/25 06:46:01;;;;;;;4.22;3.83;;;23.90;99.90;;;;;;12916896;23;20251;-80
2022/06/25 06:51:03;;;;;;;4.00;3.70;;;24.00;99.90;;;;;;12915747;23;20500;-79
2022/06/25 06:56:06;;;;;;;4.07;3.78;;;24.00;99.90;;;;;;12915868;23;20579;-79
2022/06/25 07:01:08;;;;;;;5.57;4.72;;;24.10;99.90;;;;;;12914224;23;20974;-79
2022/06/25 07:06:11;;;;;;;3.85;3.55;;;24.10;99.90;;;;;;12915158;23;20182;-80
2022/06/25 07:11:28;;;;;;;3.92;3.60;;;24.20;99.90;;;;;;12932838;23;20636;-79
2022/06/25 07:16:32;;;;;;;3.65;3.35;;;24.30;99.90;;;;;;12934461;23;20193;-80
2022/06/25 07:21:36;;;;;;;3.88;3.58;;;24.30;99.90;;;;;;12916863;22;20174;-80
2022/06/25 07:26:38;;;;;;;4.53;4.13;;;24.40;99.90;;;;;;12914771;23;20198;-80
2022/06/25 07:31:41;;;;;;;4.38;3.65;;;24.50;99.90;;;;;;12916487;23;20167;-80
2022/06/25 07:36:49;;;;;;;4.97;4.43;;;24.50;99.90;;;;;;12893121;23;20178;-79
2022/06/25 07:41:53;;;;;;;4.63;3.85;;;24.70;99.90;;;;;;12893656;23;20174;-80
2022/06/25 07:46:55;;;;;;;7.88;5.13;;;24.70;99.90;;;;;;12920219;23;20215;-80
2022/06/25 07:52:00;;;;;;;4.20;3.83;;;24.80;99.90;;;;;;12921508;23;20773;-80
2022/06/25 07:57:03;;;;;;;3.95;3.55;;;24.90;99.90;;;;;;12920983;23;20190;-80
2022/06/25 08:02:06;;;;;;;5.38;4.75;;;24.90;99.70;;;;;;12920960;23;20558;-80
2022/06/25 08:07:09;;;;;;;4.13;3.80;;;25.00;99.90;;;;;;12918800;23;20186;-80
2022/06/25 08:12:11;;;;;;;4.53;3.65;;;25.10;99.90;;;;;;12918045;23;20243;-80
2022/06/25 08:17:14;;;;;;;4.68;4.03;;;25.00;99.20;;;;;;12920944;23;20192;-79
2022/06/25 08:22:17;;;;;;;4.30;3.95;;;25.20;99.50;;;;;;12919441;23;20512;-80
2022/06/25 08:27:19;;;;;;;4.90;4.40;;;25.30;99.10;;;;;;12937135;23;20248;-80
2022/06/25 08:32:22;;;;;;;9.82;4.95;;;25.30;99.10;;;;;;12919711;23;20544;-80
2022/06/25 08:37:24;;;;;;;9.35;4.43;;;25.60;99.90;;;;;;12919223;23;20170;-79
2022/06/25 08:42:27;;;;;;;5.95;4.93;;;25.70;99.00;;;;;;12916746;23;20588;-80
2022/06/25 08:47:29;;;;;;;8.45;4.45;;;25.60;98.90;;;;;;12911983;23;20220;-80
2022/06/25 08:52:33;;;;;;;3.85;3.55;;;25.80;98.30;;;;;;12915802;23;20704;-80
2022/06/25 08:57:35;;;;;;;4.38;4.03;;;26.00;97.90;;;;;;12915674;23;20580;-79
2022/06/25 09:02:39;;;;;;;7.95;5.35;;;26.00;98.20;;;;;;12917192;23;20558;-79
2022/06/25 09:08:03;;;;;;;4.07;3.78;;;25.90;99.70;;;;;;12916516;23;20667;-80
2022/06/25 09:13:10;;;;;;;10.65;5.65;;;25.90;97.20;;;;;;12916055;23;20197;-79
2022/06/25 09:18:15;;;;;;;5.85;4.57;;;26.20;98.80;;;;;;12918906;22;20174;-80
2022/06/25 09:23:18;;;;;;;4.28;3.88;;;26.40;95.70;;;;;;12918808;23;20209;-80
2022/06/25 09:28:41;;;;;;;4.25;3.92;;;25.90;98.30;;;;;;12917321;23;20621;-80
2022/06/25 09:33:48;;;;;;;9.55;6.05;;;25.90;97.10;;;;;;12916561;23;20174;-80
2022/06/25 09:38:50;;;;;;;11.25;5.35;;;26.40;99.50;;;;;;12918688;23;20170;-80
2022/06/25 09:43:53;;;;;;;6.55;4.63;;;26.30;97.80;;;;;;12916657;23;20213;-80
2022/06/25 09:48:55;;;;;;;9.40;6.32;;;26.20;97.70;;;;;;12918819;23;20193;-80
2022/06/25 09:54:00;;;;;;;5.68;4.28;;;26.40;99.50;;;;;;12918241;23;20201;-80
2022/06/25 09:59:02;;;;;;;4.00;3.67;;;26.30;97.60;;;;;;12934146;23;20174;-80
2022/06/25 10:04:05;;;;;;;5.82;5.22;;;26.20;98.60;;;;;;12918053;23;20186;-80
2022/06/25 10:09:09;;;;;;;5.85;4.55;;;26.10;96.80;;;;;;12915655;23;20175;-80
2022/06/25 10:14:12;;;;;;;7.13;4.20;;;26.60;99.00;;;;;;12917926;23;20243;-80
2022/06/25 10:19:18;;;;;;;4.35;4.05;;;26.30;97.60;;;;;;12917518;22;20516;-81
2022/06/25 10:24:21;;;;;;;5.13;4.72;;;26.30;97.20;;;;;;12917552;23;20179;-80
2022/06/25 10:29:28;;;;;;;11.75;6.00;;;27.00;98.80;;;;;;12915653;23;20558;-80
2022/06/25 10:34:31;;;;;;;4.10;3.80;;;27.00;97.40;;;;;;12914830;23;20170;-80
2022/06/25 10:39:35;;;;;;;3.83;3.53;;;26.50;95.50;;;;;;12917810;23;20170;-80
2022/06/25 10:44:38;;;;;;;7.53;5.43;;;26.70;95.60;;;;;;12914774;23;20194;-80
2022/06/25 10:49:41;;;;;;;5.05;4.43;;;26.70;97.10;;;;;;12917857;23;20167;-81
2022/06/25 10:54:45;;;;;;;7.32;5.10;;;26.40;97.00;;;;;;12915360;23;20324;-80
2022/06/25 11:00:00;;;;;;;8.32;4.70;;;26.60;96.20;;;;;;12917668;23;20474;-80
2022/06/25 11:05:16;;;;;;;3.90;3.60;;;26.10;96.20;;;;;;12934652;23;20194;-80
2022/06/25 11:10:33;;;;;;;6.75;5.15;;;26.30;96.50;;;;;;12922029;23;20170;-80
2022/06/25 11:15:40;;;;;;;4.22;3.90;;;26.20;99.00;;;;;;12935622;23;20170;-80
2022/06/25 11:20:43;;;;;;;5.47;5.07;;;26.30;96.40;;;;;;12930822;23;20607;-81
2022/06/25 11:31:24;;;;;;;9.13;6.80;;;26.60;97.40;;;;;;12934999;23;20166;-81
2022/06/25 11:36:31;;;;;;;7.40;5.47;;;26.30;98.70;;;;;;12916971;22;20174;-81
2022/06/25 11:41:34;;;;;;;12.07;5.68;;;26.50;97.50;;;;;;12933056;23;20228;-81
2022/06/25 11:46:37;;;;;;;6.65;5.18;;;26.80;98.40;;;;;;12914659;23;20198;-81
2022/06/25 11:51:51;;;;;;;7.75;7.03;;;27.00;96.80;;;;;;12914997;23;20498;-80
2022/06/25 11:56:55;;;;;;;7.60;6.45;;;25.90;99.90;;;;;;12914749;23;20260;-80
2022/06/25 12:02:03;;;;;;;7.88;5.75;;;25.60;99.90;;;;;;12914421;23;20204;-80
2022/06/25 12:07:15;;;;;;;9.80;7.05;;;26.10;99.10;;;;;;12933476;23;20183;-80
2022/06/25 12:12:19;;;;;;;6.80;6.00;;;26.80;97.90;;;;;;12932163;23;20166;-81
2022/06/25 12:17:21;;;;;;;12.77;7.68;;;25.80;99.40;;;;;;12914709;23;20167;-81
2022/06/25 12:22:28;;;;;;;7.15;6.38;;;25.30;99.90;;;;;;12916396;23;20575;-80
2022/06/25 12:27:30;;;;;;;11.15;6.60;;;25.80;99.50;;;;;;12918198;23;20244;-80
2022/06/25 12:32:41;;;;;;;10.13;6.28;;;26.30;98.00;;;;;;12921902;23;20170;-82
2022/06/25 12:38:03;;;;;;;8.30;6.32;;;27.10;96.30;;;;;;12901581;23;20653;-93
2022/06/25 12:43:09;;;;;;;6.57;6.05;;;28.10;96.40;;;;;;12919143;23;20209;-92
2022/06/25 12:48:13;;;;;;;6.72;6.03;;;27.20;96.10;;;;;;12918688;23;20194;-92
2022/06/25 12:53:17;;;;;;;9.20;5.85;;;27.80;94.90;;;;;;12918607;23;20178;-92
2022/06/25 12:58:21;;;;;;;8.45;7.60;;;28.40;94.10;;;;;;12893493;23;20206;-92
2022/06/25 13:03:23;;;;;;;7.97;5.40;;;28.00;94.30;;;;;;12936959;23;20170;-92
2022/06/25 13:08:26;;;;;;;7.93;6.05;;;27.70;95.10;;;;;;12918106;23;20256;-92
2022/06/25 13:13:28;;;;;;;22.98;16.00;;;28.80;96.00;;;;;;12893400;23;20174;-93
2022/06/25 13:18:31;;;;;;;6.72;6.13;;;28.90;94.40;;;;;;12919019;23;20556;-91
2022/06/25 13:23:34;;;;;;;11.93;8.95;;;;;;;;;;12920037;23;20174;-92
2022/06/25 13:28:36;;;;;;;7.82;7.10;;;28.70;94.00;;;;;;12892687;23;20171;-92
2022/06/25 13:33:39;;;;;;;8.70;7.55;;;28.60;91.30;;;;;;12917520;23;20170;-92
2022/06/25 13:38:41;;;;;;;8.45;7.72;;;28.10;93.10;;;;;;12917701;23;20178;-92
2022/06/25 13:43:45;;;;;;;9.75;8.13;;;27.80;93.70;;;;;;12936417;23;20221;-92
2022/06/25 13:48:48;;;;;;;10.30;6.85;;;27.40;94.40;;;;;;12917762;23;20170;-93
2022/06/25 13:53:51;;;;;;;8.48;6.32;;;27.00;95.10;;;;;;12919198;23;20244;-91
2022/06/25 13:58:54;;;;;;;7.60;7.00;;;27.40;94.00;;;;;;12917653;23;20178;-92
2022/06/25 14:03:56;;;;;;;7.80;6.32;;;27.90;93.50;;;;;;12919017;23;20167;-92
2022/06/25 14:08:59;;;;;;;7.13;5.95;;;28.60;92.10;;;;;;12917531;23;20201;-92
2022/06/25 14:14:01;;;;;;;7.07;6.47;;;28.20;90.00;;;;;;12916114;23;20220;-90
2022/06/25 14:19:04;;;;;;;7.57;6.57;;;27.80;92.20;;;;;;12891855;23;20178;-91
2022/06/25 14:24:06;;;;;;;6.68;5.55;;;27.90;90.70;;;;;;12916893;23;20194;-91
2022/06/25 14:29:09;;;;;;;6.30;5.80;;;28.20;93.00;;;;;;12917489;23;20220;-92
2022/06/25 14:34:12;;;;;;;9.02;7.65;;;27.80;92.20;;;;;;12916075;23;20174;-91
2022/06/25 14:44:35;;;;;;;6.45;5.95;;;27.60;92.60;;;;;;12915638;23;20243;-90
2022/06/25 14:49:45;;;;;;;7.45;6.75;;;28.00;92.90;;;;;;12916288;23;20262;-92
2022/06/25 14:54:47;;;;;;;7.25;6.65;;;28.40;91.50;;;;;;12918997;23;20221;-92
2022/06/25 14:59:50;;;;;;;8.88;6.57;;;28.00;91.20;;;;;;12917262;23;20170;-91
2022/06/25 15:04:52;;;;;;;8.73;7.30;;;28.20;90.80;;;;;;12937552;23;20217;-92
2022/06/25 15:10:00;;;;;;;7.55;6.93;;;27.70;91.30;;;;;;12891780;23;20174;-92
2022/06/25 15:15:04;;;;;;;7.13;6.47;;;27.70;90.30;;;;;;12916679;23;20178;-92
2022/06/25 15:20:07;;;;;;;7.47;6.78;;;27.70;92.60;;;;;;12916877;23;20179;-90
2022/06/25 15:25:10;;;;;;;6.80;6.28;;;27.10;93.50;;;;;;12891015;23;20194;-91
2022/06/25 15:30:13;;;;;;;8.27;7.35;;;27.50;93.30;;;;;;12917368;23;20158;-91
2022/06/25 15:35:15;;;;;;;6.93;6.38;;;27.70;93.20;;;;;;12916784;23;20234;-92
2022/06/25 15:40:24;;;;;;;6.97;6.45;;;27.20;94.10;;;;;;12915836;23;20251;-91
2022/06/25 15:45:27;;;;;;;9.68;7.05;;;27.10;94.20;;;;;;12915323;23;20190;-91
2022/06/25 15:50:29;;;;;;;8.25;6.90;;;27.10;94.20;;;;;;12916678;23;20170;-91
2022/06/25 15:55:32;;;;;;;7.93;7.10;;;27.00;91.60;;;;;;12915277;23;20232;-91
2022/06/25 16:00:37;;;;;;;7.32;6.63;;;26.90;94.40;;;;;;12919700;23;20538;-91
2022/06/25 16:05:40;;;;;;;8.63;6.50;;;27.20;93.50;;;;;;12894803;23;20194;-91
2022/06/25 16:10:43;;;;;;;7.82;7.03;;;27.30;93.50;;;;;;12919639;23;20205;-91
2022/06/25 16:15:45;;;;;;;6.25;5.75;;;27.00;93.10;;;;;;12919631;23;20178;-91
2022/06/25 16:20:48;;;;;;;8.18;7.43;;;27.10;92.60;;;;;;12920260;23;20174;-91
2022/06/25 16:25:51;;;;;;;6.97;6.38;;;27.50;93.10;;;;;;12920331;23;20190;-93
2022/06/25 16:30:54;;;;;;;6.88;6.18;;;27.00;93.70;;;;;;12920631;23;20163;-92
2022/06/25 16:35:57;;;;;;;7.32;6.72;;;27.00;93.70;;;;;;12918893;23;20629;-91
2022/06/25 16:41:01;;;;;;;7.00;6.28;;;27.10;94.40;;;;;;12919240;23;20568;-92
2022/06/25 16:46:04;;;;;;;10.65;6.60;;;26.70;94.80;;;;;;12919140;23;20202;-92
2022/06/25 16:51:07;;;;;;;8.13;5.88;;;26.80;95.10;;;;;;12894450;23;20224;-91
2022/06/25 16:56:10;;;;;;;25.67;20.50;;;27.00;95.00;;;;;;12893485;23;20202;-91
2022/06/25 17:01:13;;;;;;;16.77;10.98;;;27.20;95.10;;;;;;12918984;23;20193;-91
2022/06/25 17:06:16;;;;;;;10.35;9.35;;;27.30;95.70;;;;;;12918488;23;20198;-92
2022/06/25 17:11:19;;;;;;;9.80;8.02;;;27.20;97.70;;;;;;12918218;23;20178;-94
2022/06/25 17:16:22;;;;;;;10.98;9.68;;;26.90;97.20;;;;;;12893885;23;20247;-91
2022/06/25 17:21:25;;;;;;;14.13;11.45;;;26.70;97.30;;;;;;12937517;23;20171;-92
2022/06/25 17:26:27;;;;;;;11.52;8.05;;;26.60;97.40;;;;;;12918245;23;20198;-92
2022/06/25 17:31:33;;;;;;;8.77;7.85;;;26.40;97.50;;;;;;12893683;23;20167;-92
2022/06/25 17:36:36;;;;;;;12.75;9.13;;;26.30;96.80;;;;;;12917500;23;20240;-92
2022/06/25 17:41:38;;;;;;;11.77;9.32;;;26.10;96.80;;;;;;12891945;23;20209;-91
2022/06/25 17:46:41;;;;;;;11.98;8.98;;;26.10;99.10;;;;;;12916355;22;20194;-78
2022/06/25 17:51:49;;;;;;;7.47;6.82;;;26.10;98.00;;;;;;12873923;23;20163;-78
2022/06/25 17:56:52;;;;;;;6.65;6.05;;;25.70;97.50;;;;;;12854417;23;20549;-78
2022/06/25 18:01:54;;;;;;;6.65;6.07;;;25.70;97.60;;;;;;12829856;23;20225;-78
2022/06/25 18:06:57;;;;;;;9.43;5.75;;;25.60;97.70;;;;;;12874030;23;20237;-78
2022/06/25 18:12:00;;;;;;;6.95;5.93;;;25.70;97.50;;;;;;12872962;23;20167;-78
2022/06/25 18:17:03;;;;;;;7.60;6.97;;;25.30;98.10;;;;;;12829846;23;20167;-78
2022/06/25 18:22:05;;;;;;;8.20;7.45;;;25.10;98.80;;;;;;12853408;23;20198;-78
2022/06/25 18:27:08;;;;;;;7.50;6.80;;;25.00;99.30;;;;;;12872506;23;20187;-78
2022/06/25 18:32:11;;;;;;;7.20;6.50;;;24.90;99.70;;;;;;12829146;23;20168;-78
2022/06/25 18:37:13;;;;;;;7.38;6.80;;;24.70;99.90;;;;;;12854944;23;20198;-78
2022/06/25 18:42:16;;;;;;;6.80;6.25;;;24.60;99.90;;;;;;12873038;23;20171;-78
2022/06/25 18:47:18;;;;;;;7.30;6.60;;;24.40;99.90;;;;;;12854737;23;20249;-78
2022/06/25 18:52:21;;;;;;;7.45;6.85;;;24.30;99.90;;;;;;12852108;23;20653;-78
2022/06/25 18:57:24;;;;;;;7.78;7.07;;;24.10;99.90;;;;;;12852153;23;20179;-78
2022/06/25 19:02:26;;;;;;;7.18;6.13;;;24.00;99.90;;;;;;12855003;23;20171;-78
2022/06/25 19:07:29;;;;;;;7.88;7.28;;;23.90;99.90;;;;;;12827402;23;20253;-78
2022/06/25 19:12:32;;;;;;;6.78;6.15;;;23.80;99.90;;;;;;12853547;23;20213;-78
2022/06/25 19:17:35;;;;;;;6.78;6.18;;;23.70;99.90;;;;;;12854621;23;20167;-78
2022/06/25 19:22:40;;;;;;;6.38;5.88;;;23.70;99.90;;;;;;12827366;23;20205;-77
2022/06/25 19:27:43;;;;;;;6.85;6.35;;;23.60;99.90;;;;;;12855698;23;20537;-77
2022/06/25 19:32:46;;;;;;;6.00;5.50;;;23.60;99.90;;;;;;12827930;23;20557;-78
2022/06/25 19:37:48;;;;;;;6.90;6.30;;;23.60;99.90;;;;;;12853555;23;20232;-78
2022/06/25 19:42:51;;;;;;;8.45;7.07;;;23.50;99.90;;;;;;12852664;23;20178;-78
2022/06/25 19:47:54;;;;;;;8.48;4.65;;;23.40;99.90;;;;;;12852986;23;20257;-78
2022/06/25 19:52:58;;;;;;;10.32;6.60;;;23.40;99.90;;;;;;12828177;23;20164;-78
2022/06/25 19:58:01;;;;;;;8.40;6.93;;;23.40;99.90;;;;;;12826991;23;20229;-78
2022/06/25 20:03:03;;;;;;;7.53;6.90;;;23.30;99.90;;;;;;12828343;23;20175;-78
2022/06/25 20:08:06;;;;;;;7.80;7.13;;;23.30;99.90;;;;;;12870629;23;20217;-77
2022/06/25 20:13:09;;;;;;;6.97;6.38;;;23.30;99.90;;;;;;12845173;23;20229;-78
2022/06/25 20:18:12;;;;;;;24.15;7.60;;;23.30;99.90;;;;;;12826514;23;20171;-79
2022/06/25 20:23:14;;;;;;;6.18;5.57;;;23.40;99.90;;;;;;12879940;22;20227;-83
2022/06/25 20:28:17;;;;;;;9.63;5.75;;;22.50;99.90;;;;;;12999154;22;20212;-82
2022/06/25 20:33:19;;;;;;;7.50;5.47;;;23.00;99.90;;;;;;12981082;22;20219;-82
2022/06/25 20:38:22;;;;;;;8.98;6.15;;;24.00;99.90;;;;;;12979708;22;20236;-82
2022/06/25 20:43:24;;;;;;;9.93;6.13;;;24.60;99.90;;;;;;12978831;22;20174;-82
2022/06/25 20:48:27;;;;;;;6.07;5.20;;;25.00;99.90;;;;;;12984060;22;20186;-82
2022/06/25 20:53:29;;;;;;;6.40;5.55;;;25.30;99.90;;;;;;12998744;22;20554;-83
2022/06/25 20:58:38;;;;;;;5.72;4.97;;;25.40;99.90;;;;;;12982225;22;20227;-83
2022/06/25 21:09:02;;;;;;;6.88;5.18;;;25.70;99.90;;;;;;12995400;22;20570;-84
2022/06/25 21:14:04;;;;;;;6.65;5.82;;;25.80;99.90;;;;;;12981185;22;20235;-83
2022/06/25 21:19:09;;;;;;;7.65;5.10;;;25.80;99.90;;;;;;12999489;22;20169;-83
2022/06/25 21:24:13;;;;;;;6.07;4.72;;;25.80;99.90;;;;;;12979596;22;20896;-83
2022/06/25 21:29:15;;;;;;;5.18;4.75;;;25.90;99.90;;;;;;12980237;22;20251;-83
2022/06/25 21:34:17;;;;;;;5.60;4.90;;;25.90;99.90;;;;;;12982406;22;20166;-83
2022/06/25 21:39:20;;;;;;;5.93;4.35;;;25.80;99.90;;;;;;12980634;22;20212;-83
2022/06/25 21:44:23;;;;;;;5.75;4.45;;;25.90;99.90;;;;;;12981824;22;20220;-83
2022/06/25 21:49:25;;;;;;;4.85;3.97;;;25.80;99.90;;;;;;12979134;22;20479;-82
2022/06/25 21:54:28;;;;;;;5.28;4.05;;;25.80;99.90;;;;;;12981211;22;20571;-81
2022/06/25 21:59:30;;;;;;;4.47;4.15;;;25.90;99.90;;;;;;12981089;22;20196;-82
2022/06/25 22:04:33;;;;;;;4.43;4.03;;;25.80;99.90;;;;;;12981261;22;20169;-82
2022/06/25 22:09:35;;;;;;;4.05;3.75;;;25.80;99.90;;;;;;12980037;22;20185;-82
2022/06/25 22:14:39;;;;;;;4.50;4.10;;;25.80;99.90;;;;;;12982827;22;20165;-83
2022/06/25 22:19:42;;;;;;;4.30;4.00;;;25.80;99.90;;;;;;12981170;22;20505;-82
2022/06/25 22:24:44;;;;;;;5.00;4.50;;;25.70;99.90;;;;;;12981849;22;20591;-83
2022/06/25 22:29:47;;;;;;;4.75;4.35;;;25.70;99.90;;;;;;12999694;22;20216;-83
2022/06/25 22:34:49;;;;;;;4.88;4.50;;;25.70;99.90;;;;;;12982093;22;20166;-83
2022/06/25 22:39:52;;;;;;;4.35;3.95;;;25.70;99.90;;;;;;12980909;22;20231;-83
2022/06/25 22:44:54;;;;;;;4.68;4.13;;;25.60;99.90;;;;;;12980011;22;20177;-83
2022/06/25 22:49:57;;;;;;;4.53;4.18;;;25.60;99.90;;;;;;12982349;22;20189;-82
2022/06/25 22:54:59;;;;;;;4.43;4.13;;;25.60;99.90;;;;;;12981289;22;20166;-82
2022/06/25 23:00:05;;;;;;;4.88;4.50;;;25.60;99.90;;;;;;12982079;22;20191;-82
2022/06/25 23:05:09;;;;;;;4.50;4.13;;;25.60;99.90;;;;;;12999550;22;20169;-83
2022/06/25 23:10:15;;;;;;;4.40;4.10;;;25.60;99.90;;;;;;12979438;22;20185;-83
2022/06/25 23:15:19;;;;;;;4.97;4.47;;;25.50;99.90;;;;;;12999990;22;20188;-83
2022/06/25 23:20:21;;;;;;;4.40;4.00;;;25.50;99.90;;;;;;12980711;22;20240;-83
2022/06/25 23:25:24;;;;;;;4.55;4.18;;;25.40;99.90;;;;;;12980865;22;20189;-83
2022/06/25 23:30:26;;;;;;;5.43;5.00;;;25.40;99.90;;;;;;12981443;22;20244;-83
2022/06/25 23:35:29;;;;;;;4.63;4.22;;;25.40;99.90;;;;;;12999141;22;20535;-83
2022/06/25 23:40:32;;;;;;;5.93;4.07;;;25.30;99.90;;;;;;12981293;22;20555;-83
2022/06/25 23:45:34;;;;;;;4.22;3.92;;;25.40;99.90;;;;;;12979697;22;20228;-83
2022/06/25 23:50:37;;;;;;;4.78;4.38;;;25.30;99.90;;;;;;12980181;22;20185;-83
2022/06/25 23:55:39;;;;;;;4.47;4.13;;;25.30;99.90;;;;;;12979059;22;20177;-82
